Time;durP1;ratioP1;P1;durP2;ratioP2;P2;SDS_P1;SDS_P2;PMS_P1;PMS_P2;Temp;Humidity;BMP_temperature;BMP_pressure;BME280_temperature;BME280_humidity;BME280_pressure;Samples;Min_cycle;Max_cycle;Signal;HPM_P1;HPM_P2
2022/04/19 00:01:16;;;;;;;3.60;3.30;;;;;;;6.93;79.13;99138.81;5094427;28;20200;-56
2022/04/19 00:03:43;;;;;;;3.50;3.20;;;;;;;7.19;79.07;99180.34;5091329;28;20193;-55
2022/04/19 00:06:10;;;;;;;4.13;3.47;;;;;;;7.02;78.75;99156.94;5079435;28;20227;-55
2022/04/19 00:08:37;;;;;;;3.60;3.27;;;;;;;7.17;79.49;99177.72;5071420;28;20243;-56
2022/04/19 00:11:05;;;;;;;6.97;5.93;;;;;;;7.15;79.59;99181.94;5071586;28;20206;-56
2022/04/19 00:13:32;;;;;;;3.47;3.17;;;;;;;7.13;79.05;99179.38;5071523;28;20195;-56
2022/04/19 00:16:00;;;;;;;3.60;3.30;;;;;;;7.19;79.08;99181.22;5070916;28;20230;-55
2022/04/19 00:18:27;;;;;;;3.90;3.60;;;;;;;7.14;78.77;99180.25;5071016;28;20281;-59
2022/04/19 00:20:54;;;;;;;6.00;3.20;;;;;;;7.13;78.87;99181.06;5071173;28;20624;-59
2022/04/19 00:23:22;;;;;;;3.50;3.00;;;;;;;7.10;79.85;99178.44;5071380;28;20194;-60
2022/04/19 00:25:52;;;;;;;3.63;3.33;;;;;;;7.09;79.03;99174.13;5072025;28;20194;-59
2022/04/19 00:28:21;;;;;;;3.70;3.40;;;;;;;7.05;79.84;99182.56;5091343;28;20309;-59
2022/04/19 00:30:48;;;;;;;4.90;3.30;;;;;;;7.03;79.84;99174.00;5091085;28;20186;-59
2022/04/19 00:33:15;;;;;;;3.40;3.20;;;;;;;6.98;80.00;99176.41;5091347;28;20205;-59
2022/04/19 00:35:43;;;;;;;3.90;3.27;;;;;;;7.00;80.00;99177.31;5088775;28;20213;-59
2022/04/19 00:38:10;;;;;;;5.23;4.00;;;;;;;6.96;79.23;99178.09;5077237;28;20198;-60
2022/04/19 00:40:37;;;;;;;5.07;3.43;;;;;;;6.99;79.40;99174.72;5070659;28;20198;-60
2022/04/19 00:43:05;;;;;;;4.03;3.47;;;;;;;6.95;79.41;99178.91;5070802;28;20202;-59
2022/04/19 00:45:34;;;;;;;4.30;3.30;;;;;;;6.88;79.57;99177.03;5077561;28;20250;-60
2022/04/19 00:48:02;;;;;;;5.50;4.03;;;;;;;6.81;79.27;99161.50;5089708;28;20448;-59
2022/04/19 00:50:30;;;;;;;4.00;3.70;;;;;;;6.94;79.36;99173.75;5088156;28;20181;-59
2022/04/19 00:52:58;;;;;;;4.77;3.70;;;;;;;6.65;79.26;99141.53;5090504;28;20189;-60
2022/04/19 00:55:25;;;;;;;3.87;2.97;;;;;;;6.87;79.01;99162.50;5090193;28;20279;-60
2022/04/19 00:57:52;;;;;;;4.30;3.87;;;;;;;6.90;78.99;99165.16;5090517;28;20199;-59
2022/04/19 01:00:20;;;;;;;4.67;3.93;;;;;;;6.82;78.38;99165.78;5089959;28;20195;-59
2022/04/19 01:02:48;;;;;;;4.07;3.27;;;;;;;6.84;78.25;99162.44;5090261;28;20588;-55
2022/04/19 01:05:16;;;;;;;4.20;3.80;;;;;;;6.92;78.83;99166.03;5087581;28;20269;-55
2022/04/19 01:07:46;;;;;;;3.87;3.57;;;;;;;6.92;78.99;99160.94;5090045;28;20221;-55
2022/04/19 01:10:13;;;;;;;3.67;3.37;;;;;;;6.91;77.91;99161.78;5090476;28;20672;-56
2022/04/19 01:15:24;;;;;;;4.07;3.67;;;;;;;6.75;79.35;99138.38;5090457;28;20247;-56
2022/04/19 01:17:54;;;;;;;3.80;3.30;;;;;;;6.89;79.11;99165.13;5090242;28;20231;-56
2022/04/19 01:20:21;;;;;;;4.33;3.93;;;;;;;6.93;79.66;99169.47;5090276;28;20193;-56
2022/04/19 01:22:51;;;;;;;4.03;3.63;;;;;;;6.89;79.35;99166.00;5090333;28;20200;-55
2022/04/19 01:25:19;;;;;;;4.13;3.80;;;;;;;6.93;79.97;99166.91;5090276;28;20663;-56
2022/04/19 01:27:47;;;;;;;3.27;2.97;;;;;;;6.93;79.92;99167.78;5090307;28;20219;-56
2022/04/19 01:30:14;;;;;;;3.90;3.10;;;;;;;6.89;78.62;99166.00;5090736;28;20943;-55
2022/04/19 01:32:41;;;;;;;3.90;3.60;;;;;;;6.95;78.66;99167.84;5090360;28;20202;-55
2022/04/19 01:35:10;;;;;;;5.00;4.45;;;;;;;7.06;78.94;99162.16;5089402;28;20448;-56
2022/04/19 01:37:38;;;;;;;4.53;4.13;;;;;;;7.08;78.91;99155.41;5090171;28;20193;-56
2022/04/19 01:40:19;;;;;;;4.43;3.77;;;;;;;7.04;79.50;99155.28;5090071;28;20244;-56
2022/04/19 01:42:48;;;;;;;5.00;4.20;;;;;;;7.03;78.90;99158.69;5090065;28;20203;-55
2022/04/19 01:45:16;;;;;;;4.67;4.10;;;;;;;7.02;79.62;99151.81;5090299;28;20193;-55
2022/04/19 01:47:44;;;;;;;5.70;3.73;;;;;;;6.99;80.07;99157.72;5090102;28;20225;-55
2022/04/19 01:50:13;;;;;;;5.20;4.68;;;;;;;7.07;80.57;99150.25;5089388;28;20436;-55
2022/04/19 01:52:41;;;;;;;3.70;3.40;;;;;;;7.14;80.03;99150.44;5090161;28;20282;-55
2022/04/19 01:55:13;;;;;;;5.27;4.00;;;;;;;7.11;79.66;99147.78;5089904;28;20202;-55
2022/04/19 01:57:41;;;;;;;4.30;3.93;;;;;;;7.11;79.88;99152.06;5089937;28;20220;-56
2022/04/19 02:00:08;;;;;;;4.03;3.70;;;;;;;7.10;80.02;99150.31;5089936;28;20194;-56
2022/04/19 02:02:35;;;;;;;4.30;3.70;;;;;;;7.04;79.29;99147.63;5092134;28;20197;-55
2022/04/19 02:05:02;;;;;;;4.77;4.27;;;;;;;7.03;79.88;99145.91;5092703;28;20194;-55
2022/04/19 02:07:32;;;;;;;4.67;4.10;;;;;;;7.03;79.16;99144.19;5093804;28;20198;-55
2022/04/19 02:09:59;;;;;;;5.63;3.93;;;;;;;6.99;79.97;99146.66;5093955;28;20193;-56
2022/04/19 02:12:28;;;;;;;4.00;3.60;;;;;;;6.96;79.18;99144.88;5094000;28;20203;-56
2022/04/19 02:14:55;;;;;;;3.70;3.30;;;;;;;6.99;77.61;99142.41;5093775;28;20609;-55
2022/04/19 02:17:23;;;;;;;3.50;3.00;;;;;;;6.97;77.92;99140.66;5093742;28;20201;-56
2022/04/19 02:19:50;;;;;;;3.73;3.33;;;;;;;6.96;77.15;99136.34;5093957;28;20194;-56
2022/04/19 02:22:17;;;;;;;5.27;4.33;;;;;;;6.97;77.53;99140.66;5093767;28;20218;-56
2022/04/19 02:24:44;;;;;;;3.93;3.40;;;;;;;6.97;77.22;99141.50;5093609;28;20278;-56
2022/04/19 02:27:11;;;;;;;3.63;3.40;;;;;;;7.03;77.66;99143.34;5093338;28;20187;-56
2022/04/19 02:29:40;;;;;;;3.53;3.17;;;;;;;7.07;77.75;99142.59;5093445;28;20221;-55
2022/04/19 02:32:07;;;;;;;5.40;3.00;;;;;;;7.07;77.57;99140.03;5093408;28;20199;-55
2022/04/19 02:34:34;;;;;;;3.43;3.07;;;;;;;7.08;75.77;99139.22;5093494;28;20196;-56
2022/04/19 02:37:01;;;;;;;4.00;3.70;;;;;;;7.09;75.54;99139.25;5092544;28;20439;-56
2022/04/19 02:39:28;;;;;;;3.40;3.10;;;;;;;7.15;75.72;99141.06;5093250;28;20205;-56
2022/04/19 02:41:55;;;;;;;5.43;3.67;;;;;;;7.17;76.00;99141.97;5093231;28;20201;-55
2022/04/19 02:44:22;;;;;;;3.73;3.43;;;;;;;7.11;76.44;99147.78;5093173;28;20683;-56
2022/04/19 02:46:50;;;;;;;7.00;4.40;;;;;;;7.14;76.38;99140.22;5093169;28;20189;-55
2022/04/19 02:49:17;;;;;;;4.13;3.73;;;;;;;7.11;76.76;99144.41;5093338;28;20225;-55
2022/04/19 02:51:44;;;;;;;5.00;4.00;;;;;;;7.10;76.69;99143.53;5092349;28;20432;-55
2022/04/19 02:54:11;;;;;;;5.67;3.87;;;;;;;7.18;76.61;99140.28;5093064;28;20280;-56
2022/04/19 02:56:38;;;;;;;4.00;3.70;;;;;;;7.15;76.41;99143.63;5093216;28;20216;-56
2022/04/19 02:59:05;;;;;;;3.67;3.37;;;;;;;7.12;76.57;99151.22;5093332;28;20232;-56
2022/04/19 03:01:32;;;;;;;5.40;4.33;;;;;;;7.04;76.44;99143.38;5092982;28;20537;-56
2022/04/19 03:04:00;;;;;;;4.30;3.90;;;;;;;6.95;77.51;99140.59;5093305;28;20203;-55
2022/04/19 03:06:27;;;;;;;4.13;3.73;;;;;;;6.99;78.23;99144.09;5092695;28;20204;-56
2022/04/19 03:08:55;;;;;;;5.27;3.90;;;;;;;6.98;78.04;99150.88;5092871;28;20220;-55
2022/04/19 03:11:22;;;;;;;4.53;3.97;;;;;;;6.96;78.09;99147.44;5092817;28;20202;-56
2022/04/19 03:13:49;;;;;;;4.33;3.93;;;;;;;6.95;78.60;99145.69;5091507;28;20200;-56
2022/04/19 03:16:15;;;;;;;3.80;3.50;;;;;;;6.94;77.96;99158.44;5092529;28;20622;-56
2022/04/19 03:18:43;;;;;;;3.97;3.53;;;;;;;6.97;78.05;99153.41;5092641;28;20200;-56
2022/04/19 03:21:12;;;;;;;4.10;3.43;;;;;;;7.01;78.18;99156.06;5092832;28;20201;-56
2022/04/19 03:29:10;;;;;;;7.77;4.50;;;;;;;7.03;77.67;99156.97;5092339;28;20211;-55
2022/04/19 03:31:37;;;;;;;6.00;4.40;;;;;;;7.02;78.03;99160.38;5092175;28;20671;-56
2022/04/19 03:34:04;;;;;;;6.13;4.40;;;;;;;7.03;78.29;99156.97;5092168;28;20198;-56
2022/04/19 03:36:33;;;;;;;5.53;4.50;;;;;;;6.97;78.42;99156.84;5092364;28;20205;-56
2022/04/19 03:39:00;;;;;;;5.68;5.18;;;;;;;7.04;78.56;99153.59;5091335;28;20507;-56
2022/04/19 03:41:27;;;;;;;5.30;4.90;;;;;;;7.08;78.49;99162.22;5092274;28;20193;-55
2022/04/19 03:43:54;;;;;;;7.00;4.83;;;;;;;7.03;78.92;99161.22;5091392;28;20320;-56
2022/04/19 03:46:21;;;;;;;5.93;5.07;;;;;;;7.03;79.55;99162.06;5092079;28;20640;-55
2022/04/19 03:48:48;;;;;;;4.90;4.50;;;;;;;6.99;79.85;99167.06;5091813;28;20248;-59
2022/04/19 03:51:15;;;;;;;5.83;5.17;;;;;;;6.82;79.67;99155.56;5091793;28;20193;-59
2022/04/19 03:53:43;;;;;;;6.50;5.90;;;;;;;6.79;81.08;99158.03;5091277;28;20432;-59
2022/04/19 03:56:10;;;;;;;5.70;5.17;;;;;;;6.71;81.92;99155.28;5091855;28;20606;-59
2022/04/19 03:58:39;;;;;;;8.23;5.50;;;;;;;6.83;82.27;99159.84;5091690;28;20366;-60
2022/04/19 04:01:06;;;;;;;7.57;6.30;;;;;;;6.84;81.98;99162.44;5091838;28;20208;-59
2022/04/19 04:03:33;;;;;;;10.23;7.37;;;;;;;6.89;82.68;99163.44;5091689;28;20254;-60
2022/04/19 04:06:00;;;;;;;9.53;7.40;;;;;;;6.82;83.55;99155.56;5091803;28;20197;-59
2022/04/19 04:08:27;;;;;;;5.87;5.30;;;;;;;6.77;83.84;99159.69;5091833;28;20571;-60
2022/04/19 04:10:55;;;;;;;6.10;5.40;;;;;;;6.81;83.22;99159.81;5091652;28;20284;-60
2022/04/19 04:13:22;;;;;;;5.43;4.93;;;;;;;6.93;82.59;99162.69;5091715;28;20321;-59
2022/04/19 04:15:49;;;;;;;7.57;5.63;;;;;;;6.98;82.52;99168.75;5083283;28;20230;-60
2022/04/19 04:18:16;;;;;;;9.17;5.63;;;;;;;7.05;82.45;99174.91;5070813;28;20198;-60
2022/04/19 04:20:43;;;;;;;7.00;5.47;;;;;;;7.05;83.05;99177.44;5072576;28;20206;-60
2022/04/19 04:23:09;;;;;;;5.60;5.03;;;;;;;7.10;83.31;99178.44;5084399;28;20185;-60
2022/04/19 04:25:36;;;;;;;7.77;6.97;;;;;;;7.12;83.41;99174.22;5082333;28;20740;-60
2022/04/19 04:28:05;;;;;;;7.43;6.73;;;;;;;7.14;83.66;99180.25;5080720;28;20209;-56
2022/04/19 04:30:33;;;;;;;7.30;6.43;;;;;;;7.14;82.95;99178.53;5091179;28;20229;-56
2022/04/19 04:33:00;;;;;;;7.10;5.97;;;;;;;7.16;81.89;99186.25;5090856;28;20217;-56
2022/04/19 04:35:27;;;;;;;15.37;6.80;;;;;;;7.19;81.60;99185.44;5090915;28;20714;-56
2022/04/19 04:37:54;;;;;;;7.30;6.60;;;;;;;7.20;82.56;99193.13;5091162;28;20236;-56
2022/04/19 04:40:21;;;;;;;5.90;5.28;;;;;;;7.14;82.41;99186.19;5091032;28;20439;-56
2022/04/19 04:42:47;;;;;;;6.57;5.77;;;;;;;7.19;82.36;99199.09;5090744;28;20198;-56
2022/04/19 04:45:16;;;;;;;7.10;6.40;;;;;;;7.13;82.61;99202.38;5079331;28;20205;-56
2022/04/19 04:50:27;;;;;;;8.83;7.27;;;;;;;7.08;82.21;99214.16;5070460;28;20229;-56
2022/04/19 04:52:55;;;;;;;10.47;8.70;;;;;;;7.00;82.92;99204.56;5070464;28;20300;-56
2022/04/19 04:55:23;;;;;;;8.87;7.93;;;;;;;7.06;82.54;99209.81;5070178;28;20592;-56
2022/04/19 04:57:51;;;;;;;6.90;6.20;;;;;;;7.07;82.19;99211.53;5070148;28;20281;-56
2022/04/19 05:00:19;;;;;;;7.70;6.90;;;;;;;7.07;81.89;99211.53;5070173;28;20598;-56
2022/04/19 05:02:46;;;;;;;11.87;7.60;;;;;;;7.16;81.90;99214.34;5069920;28;20194;-56
2022/04/19 05:05:13;;;;;;;8.70;7.37;;;;;;;7.20;81.46;99213.56;5069954;28;20778;-56
2022/04/19 05:07:40;;;;;;;20.50;7.53;;;;;;;7.19;81.62;99216.97;5070399;28;20251;-56
2022/04/19 05:10:08;;;;;;;7.83;6.37;;;;;;;7.25;82.00;99219.66;5070100;28;20217;-56
2022/04/19 05:12:35;;;;;;;7.03;5.80;;;;;;;7.23;81.20;99216.22;5069605;28;20205;-55
2022/04/19 05:15:03;;;;;;;8.17;6.80;;;;;;;7.28;80.64;99208.69;5072264;28;20311;-56
2022/04/19 05:17:32;;;;;;;11.03;5.60;;;;;;;7.26;78.92;99215.41;5085236;28;20186;-56
2022/04/19 05:19:59;;;;;;;5.40;4.53;;;;;;;7.17;78.06;99205.84;5089768;28;20284;-56
2022/04/19 05:22:26;;;;;;;4.80;4.40;;;;;;;7.25;77.61;99221.38;5090213;28;20189;-56
2022/04/19 05:24:53;;;;;;;4.67;4.27;;;;;;;7.28;77.18;99221.47;5090064;28;20194;-55
2022/04/19 05:27:20;;;;;;;5.40;4.77;;;;;;;7.32;76.60;99218.13;5089957;28;20271;-56
2022/04/19 05:29:47;;;;;;;4.90;4.40;;;;;;;7.34;76.47;99222.44;5089413;28;20266;-56
2022/04/19 05:32:14;;;;;;;3.80;3.50;;;;;;;7.34;74.77;99211.34;5089625;28;20280;-55
2022/04/19 05:34:42;;;;;;;10.10;3.83;;;;;;;7.28;74.45;99213.78;5081797;28;20209;-56
2022/04/19 05:37:09;;;;;;;4.53;4.10;;;;;;;7.31;75.44;99211.28;5068976;28;20193;-55
2022/04/19 05:39:35;;;;;;;4.43;4.03;;;;;;;7.40;74.16;99216.63;5068909;28;20441;-56
2022/04/19 05:42:03;;;;;;;4.53;3.57;;;;;;;7.53;74.05;99216.94;5080184;28;20224;-56
2022/04/19 05:44:29;;;;;;;5.30;4.40;;;;;;;7.64;73.80;99218.06;5085133;28;20262;-56
2022/04/19 05:46:57;;;;;;;5.53;4.67;;;;;;;7.77;73.57;99220.91;5089430;28;20200;-56
2022/04/19 05:49:23;;;;;;;4.83;4.33;;;;;;;7.93;73.41;99213.63;5088957;28;20211;-55
2022/04/19 05:51:52;;;;;;;4.60;4.13;;;;;;;7.98;72.90;99219.69;5089422;28;20194;-56
2022/04/19 05:54:19;;;;;;;9.10;4.77;;;;;;;8.06;72.44;99217.31;5088547;28;20671;-56
2022/04/19 05:56:46;;;;;;;5.00;4.23;;;;;;;8.07;72.06;99227.59;5089351;28;20562;-56
2022/04/19 05:59:13;;;;;;;4.87;4.40;;;;;;;8.07;72.52;99230.16;5089732;28;20189;-56
2022/04/19 06:07:10;;;;;;;6.77;5.63;;;;;;;8.32;70.72;99244.34;5100897;28;20229;-56
2022/04/19 06:09:37;;;;;;;9.37;4.70;;;;;;;8.29;70.98;99246.84;5109439;28;20589;-56
2022/04/19 06:12:04;;;;;;;7.47;5.47;;;;;;;8.34;70.52;99239.25;5109761;28;20213;-56
2022/04/19 06:14:31;;;;;;;5.60;4.67;;;;;;;8.43;70.10;99242.88;5107941;28;20271;-56
2022/04/19 06:16:58;;;;;;;5.97;4.37;;;;;;;8.41;69.36;99252.22;5095841;28;20200;-56
2022/04/19 06:19:27;;;;;;;5.40;4.13;;;;;;;8.46;69.85;99258.28;5089530;28;20242;-56
2022/04/19 06:21:55;;;;;;;6.67;4.43;;;;;;;8.46;70.27;99253.16;5089227;28;20194;-56
2022/04/19 06:24:23;;;;;;;4.40;4.00;;;;;;;8.49;71.18;99255.78;5089246;28;20229;-55
2022/04/19 06:26:50;;;;;;;4.90;4.03;;;;;;;8.50;69.38;99254.97;5088896;28;20201;-55
2022/04/19 06:29:17;;;;;;;4.33;3.60;;;;;;;8.38;68.97;99257.25;5090257;28;20239;-56
2022/04/19 06:31:44;;;;;;;3.70;3.40;;;;;;;8.47;69.70;99247.22;5087345;28;20199;-55
2022/04/19 06:34:11;;;;;;;3.87;3.57;;;;;;;8.56;68.90;99254.22;5086201;28;20198;-55
2022/04/19 06:36:39;;;;;;;4.57;3.57;;;;;;;8.63;67.10;99259.50;5088027;28;20198;-55
2022/04/19 06:39:06;;;;;;;5.53;4.20;;;;;;;8.69;67.71;99257.06;5087059;28;20198;-56
2022/04/19 06:41:35;;;;;;;7.97;4.00;;;;;;;8.68;67.80;99264.72;5088410;28;20202;-55
2022/04/19 06:44:02;;;;;;;5.70;4.50;;;;;;;8.74;68.18;99247.75;5088662;28;20198;-55
2022/04/19 06:46:29;;;;;;;4.73;4.10;;;;;;;8.94;68.81;99257.53;5088546;28;20183;-56
2022/04/19 06:48:56;;;;;;;4.87;4.17;;;;;;;9.07;67.32;99252.66;5091082;28;20692;-55
2022/04/19 06:51:23;;;;;;;4.27;3.87;;;;;;;9.11;66.42;99249.31;5092321;28;20201;-58
2022/04/19 06:53:50;;;;;;;6.23;4.17;;;;;;;9.21;65.58;99260.59;5081569;28;20779;-56
2022/04/19 06:56:18;;;;;;;5.67;4.77;;;;;;;9.14;65.46;99264.75;5092558;28;20189;-55
2022/04/19 06:58:48;;;;;;;4.57;4.17;;;;;;;9.18;66.01;99261.41;5076496;28;20295;-55
2022/04/19 07:01:15;;;;;;;4.83;4.43;;;;;;;9.15;66.83;99271.59;5086022;28;20191;-56
2022/04/19 07:03:42;;;;;;;5.57;4.17;;;;;;;9.14;66.48;99269.00;5079193;28;20210;-55
2022/04/19 07:06:09;;;;;;;4.63;4.23;;;;;;;9.22;66.26;99267.44;5075465;28;20202;-56
2022/04/19 07:08:36;;;;;;;4.17;3.77;;;;;;;9.26;65.61;99274.34;5092485;28;20209;-55
2022/04/19 07:11:03;;;;;;;6.17;4.10;;;;;;;9.31;65.13;99272.75;5092282;28;20291;-56
2022/04/19 07:13:30;;;;;;;4.20;3.80;;;;;;;9.36;64.62;99271.13;5092228;28;20665;-56
2022/04/19 07:15:59;;;;;;;4.53;4.13;;;;;;;9.46;65.04;99283.25;5090033;28;20232;-55
2022/04/19 07:18:26;;;;;;;5.93;5.33;;;;;;;9.39;64.20;99272.03;5089672;28;20276;-55
2022/04/19 07:26:41;;;;;;;4.30;4.00;;;;;;;9.32;64.81;99272.75;5092048;28;20253;-55
2022/04/19 07:29:10;;;;;;;5.73;4.97;;;;;;;9.35;64.98;99271.94;5091431;28;20327;-55
2022/04/19 07:31:39;;;;;;;4.70;4.20;;;;;;;9.52;64.68;99273.09;5091557;28;20200;-55
2022/04/19 07:34:06;;;;;;;5.63;4.30;;;;;;;9.39;65.20;99241.25;5091757;28;20236;-55
2022/04/19 07:36:33;;;;;;;6.20;5.40;;;;;;;9.73;64.49;99270.88;5092030;28;20623;-55
2022/04/19 07:39:00;;;;;;;5.82;5.32;;;;;;;9.86;63.53;99275.34;5090911;28;20496;-59
2022/04/19 07:41:27;;;;;;;5.33;4.83;;;;;;;9.89;62.48;99275.41;5091543;28;20194;-59
2022/04/19 07:43:54;;;;;;;5.33;4.70;;;;;;;9.89;62.36;99285.69;5091656;28;20285;-59
2022/04/19 07:46:21;;;;;;;6.90;4.53;;;;;;;9.86;62.57;99282.22;5091569;28;20277;-59
2022/04/19 07:48:51;;;;;;;5.73;5.03;;;;;;;9.87;62.84;99268.53;5091042;28;20221;-60
2022/04/19 07:51:18;;;;;;;5.43;4.87;;;;;;;9.82;62.58;99262.47;5090625;28;20695;-59
2022/04/19 07:53:45;;;;;;;6.20;5.70;;;;;;;9.92;62.56;99275.47;5090404;28;20432;-60
2022/04/19 07:56:12;;;;;;;5.47;4.97;;;;;;;9.92;61.90;99275.47;5090448;28;20197;-60
2022/04/19 07:58:39;;;;;;;10.10;5.13;;;;;;;10.38;67.46;99251.31;5090135;28;20879;-59
2022/04/19 08:01:06;;;;;;;5.67;4.90;;;;;;;10.60;61.76;99262.75;5100397;28;20262;-59
2022/04/19 08:03:34;;;;;;;5.17;4.67;;;;;;;10.64;60.85;99270.50;5109668;28;20197;-60
2022/04/19 08:06:02;;;;;;;5.30;4.80;;;;;;;10.82;60.66;99269.88;5110593;28;20196;-60
2022/04/19 08:08:29;;;;;;;4.80;4.40;;;;;;;10.86;58.92;99276.75;5110668;28;20197;-59
2022/04/19 08:10:57;;;;;;;4.90;4.43;;;;;;;11.01;57.31;99279.53;5110996;28;20217;-60
2022/04/19 08:13:25;;;;;;;5.33;4.83;;;;;;;11.12;57.09;99272.75;5111581;28;20207;-60
2022/04/19 08:15:52;;;;;;;7.57;5.40;;;;;;;11.25;56.72;99276.31;5111296;28;20228;-60
2022/04/19 08:18:19;;;;;;;4.77;4.37;;;;;;;11.27;56.02;99270.34;5111503;28;20196;-61
2022/04/19 08:20:47;;;;;;;5.67;5.10;;;;;;;10.56;56.28;99269.56;5111720;28;20273;-60
2022/04/19 08:23:15;;;;;;;6.70;4.83;;;;;;;10.57;57.29;99278.13;5110605;28;20256;-60
2022/04/19 08:25:43;;;;;;;6.00;5.40;;;;;;;10.63;57.12;99278.19;5111695;28;20564;-60
2022/04/19 08:28:11;;;;;;;5.80;5.30;;;;;;;10.46;57.51;99283.13;5111265;27;20602;-60
2022/04/19 08:30:38;;;;;;;7.27;5.30;;;;;;;10.60;58.03;99276.44;5111537;28;20324;-60
2022/04/19 08:33:06;;;;;;;5.97;5.37;;;;;;;10.83;57.46;99283.56;5111414;28;20215;-60
2022/04/19 08:35:32;;;;;;;6.23;5.63;;;;;;;10.84;56.65;99273.31;5111326;28;20282;-61
2022/04/19 08:37:59;;;;;;;5.55;5.07;;;;;;;11.00;55.80;99274.34;5110737;28;20430;-60
2022/04/19 08:40:28;;;;;;;7.63;5.17;;;;;;;11.13;55.22;99268.47;5110957;28;20273;-60
2022/04/19 08:42:56;;;;;;;4.60;4.20;;;;;;;11.25;54.21;99264.34;5110732;28;20284;-60
2022/04/19 08:45:23;;;;;;;6.57;5.23;;;;;;;11.24;54.54;99264.31;5110998;28;20243;-60
2022/04/19 08:47:50;;;;;;;6.00;5.40;;;;;;;11.15;54.81;99270.22;5110574;28;20694;-60
2022/04/19 08:50:19;;;;;;;6.07;5.37;;;;;;;11.47;54.34;99262.81;5110481;28;20228;-60
2022/04/19 08:52:46;;;;;;;6.03;5.27;;;;;;;11.27;54.98;99265.22;5110766;28;20576;-60
2022/04/19 08:57:59;;;;;;;6.00;5.40;;;;;;;11.50;53.18;99264.56;5110837;28;20197;-60
2022/04/19 09:00:27;;;;;;;6.43;5.40;;;;;;;11.42;52.02;99269.63;5110745;28;20281;-60
2022/04/19 09:02:56;;;;;;;7.13;6.37;;;;;;;11.43;52.89;99257.63;5110568;28;20197;-60
2022/04/19 09:05:26;;;;;;;6.23;5.63;;;;;;;11.48;53.67;99261.13;5110413;28;20212;-61
2022/04/19 09:07:54;;;;;;;11.87;5.07;;;;;;;11.40;52.00;99265.34;5110208;28;20210;-60
2022/04/19 09:10:28;;;;;;;7.77;5.83;;;;;;;11.50;52.25;99259.41;5109971;28;20225;-60
2022/04/19 09:13:00;;;;;;;4.63;4.23;;;;;;;11.48;51.19;99261.13;5109263;28;20195;-59
2022/04/19 09:15:36;;;;;;;7.67;5.70;;;;;;;11.61;51.04;99261.22;5110088;28;20222;-60
2022/04/19 09:18:03;;;;;;;5.10;4.60;;;;;;;11.82;51.21;99256.28;5109945;28;20277;-60
2022/04/19 09:20:31;;;;;;;5.20;4.80;;;;;;;11.43;52.31;99258.47;5110218;28;20203;-60
2022/04/19 09:23:05;;;;;;;7.73;5.43;;;;;;;11.53;51.52;99231.13;5109776;28;20198;-60
2022/04/19 09:25:33;;;;;;;5.80;5.30;;;;;;;11.78;52.23;99258.81;5110464;28;20984;-60
2022/04/19 09:28:04;;;;;;;6.63;5.87;;;;;;;11.90;52.58;99252.88;5110021;28;20247;-60
2022/04/19 09:30:34;;;;;;;5.97;5.47;;;;;;;12.00;52.13;99245.25;5109734;28;20241;-60
2022/04/19 09:33:04;;;;;;;6.50;5.13;;;;;;;12.19;50.97;99254.81;5109882;28;20194;-61
2022/04/19 09:35:32;;;;;;;4.93;4.53;;;;;;;12.22;49.68;99252.22;5110352;28;20205;-60
2022/04/19 09:37:59;;;;;;;4.73;4.20;;;;;;;12.15;49.24;99253.06;5110158;28;20514;-60
2022/04/19 09:40:30;;;;;;;4.67;4.30;;;;;;;12.16;48.84;99241.06;5109717;28;20428;-60
2022/04/19 09:42:57;;;;;;;4.60;4.23;;;;;;;12.26;49.64;99247.97;5109525;28;20191;-60
2022/04/19 09:45:28;;;;;;;4.57;4.17;;;;;;;12.19;48.38;99235.91;5109809;28;20586;-60
2022/04/19 09:47:55;;;;;;;4.80;4.40;;;;;;;12.16;50.37;99254.78;5109928;28;20183;-60
2022/04/19 09:50:22;;;;;;;5.40;4.17;;;;;;;12.04;49.67;99251.25;5109844;28;20214;-60
2022/04/19 09:52:51;;;;;;;5.22;4.78;;;;;;;11.49;50.90;99249.97;5109069;28;20434;-60
2022/04/19 09:55:19;;;;;;;5.10;4.63;;;;;;;11.12;52.95;99254.75;5109633;28;20198;-60
2022/04/19 09:57:49;;;;;;;5.57;5.07;;;;;;;11.13;52.76;99210.22;5109823;28;20198;-60
2022/04/19 10:00:17;;;;;;;9.13;5.90;;;;;;;11.52;53.16;99239.69;5109819;28;20194;-60
2022/04/19 10:08:20;;;;;;;4.87;4.47;;;;;;;11.99;52.23;99230.66;5109711;28;20318;-60
2022/04/19 10:10:49;;;;;;;5.17;4.77;;;;;;;12.25;51.70;99234.22;5109661;28;20218;-61
2022/04/19 10:13:18;;;;;;;5.60;4.23;;;;;;;12.45;49.54;99234.31;5109280;28;20186;-61
2022/04/19 10:15:45;;;;;;;6.20;5.70;;;;;;;12.34;50.13;99200.78;5109001;28;20313;-60
2022/04/19 10:18:14;;;;;;;4.27;3.90;;;;;;;12.31;48.68;99223.09;5109288;28;20683;-60
2022/04/19 10:20:46;;;;;;;4.50;4.10;;;;;;;12.59;47.66;99224.06;5109153;28;20195;-60
2022/04/19 10:23:15;;;;;;;4.03;3.73;;;;;;;12.31;48.99;99218.81;5110682;28;20691;-60
2022/04/19 10:25:44;;;;;;;4.50;4.13;;;;;;;12.42;47.83;99222.28;5112958;28;20190;-59
2022/04/19 10:28:13;;;;;;;4.53;4.13;;;;;;;11.91;48.29;99219.44;5113264;28;20200;-60
2022/04/19 10:30:51;;;;;;;4.43;4.07;;;;;;;11.77;49.12;99221.06;5112823;28;20214;-60
2022/04/19 10:33:51;;;;;;;4.13;3.83;;;;;;;12.16;49.45;99218.75;5113034;27;20198;-60
2022/04/19 10:36:21;;;;;;;9.77;4.33;;;;;;;12.59;47.88;99211.19;5112827;28;20193;-59
2022/04/19 10:39:22;;;;;;;4.30;4.00;;;;;;;12.91;47.37;99209.59;5112463;28;20431;-60
2022/04/19 10:41:52;;;;;;;4.67;4.27;;;;;;;13.13;47.52;99205.34;5112780;28;20190;-60
2022/04/19 10:44:30;;;;;;;3.93;3.63;;;;;;;12.91;46.07;99196.69;5113407;28;20274;-60
2022/04/19 10:47:11;;;;;;;4.00;3.70;;;;;;;12.96;46.35;99213.03;5113051;28;20282;-60
2022/04/19 10:49:56;;;;;;;3.87;3.57;;;;;;;13.14;45.14;99205.34;5112782;28;20237;-60
2022/04/19 10:52:49;;;;;;;3.30;3.10;;;;;;;13.20;44.07;99201.91;5112427;28;20213;-60
2022/04/19 10:55:29;;;;;;;4.10;3.80;;;;;;;13.26;44.40;99197.63;5112296;28;20426;-61
2022/04/19 10:58:20;;;;;;;3.97;3.67;;;;;;;13.36;43.60;99194.19;5101804;28;20201;-60
2022/04/19 11:00:52;;;;;;;3.90;3.60;;;;;;;12.93;45.06;99182.06;5079753;28;20192;-60
2022/04/19 11:03:21;;;;;;;3.90;3.60;;;;;;;12.55;45.82;99194.00;5083719;28;20195;-60
2022/04/19 11:05:50;;;;;;;4.20;3.80;;;;;;;12.73;47.00;99194.06;5080382;28;20191;-60
2022/04/19 11:08:37;;;;;;;4.87;3.93;;;;;;;13.05;46.94;99189.81;5092000;28;20199;-60
2022/04/19 11:11:24;;;;;;;3.90;3.63;;;;;;;13.06;46.08;99163.19;5088783;28;20223;-60
2022/04/19 11:14:18;;;;;;;5.37;4.53;;;;;;;13.36;45.51;99199.34;5092175;28;20191;-60
2022/04/19 11:16:45;;;;;;;7.53;4.63;;;;;;;13.20;45.65;99200.19;5091978;28;20194;-60
2022/04/19 11:19:17;;;;;;;7.53;4.30;;;;;;;12.60;47.26;99187.16;5092039;28;20281;-60
2022/04/19 11:21:55;;;;;;;5.63;4.90;;;;;;;12.18;48.02;99188.69;5092292;28;20198;-60
2022/04/19 11:25:05;;;;;;;5.30;4.80;;;;;;;11.97;49.10;99193.75;5091344;28;20428;-60
2022/04/19 11:28:09;;;;;;;7.93;5.43;;;;;;;12.02;49.70;99192.06;5047459;28;20219;-60
2022/04/19 11:30:38;;;;;;;6.72;6.07;;;;;;;12.30;49.91;99187.91;5089031;28;20911;-60
2022/04/19 11:33:08;;;;;;;7.93;6.57;;;;;;;12.42;50.06;99185.34;5090640;28;20187;-60
2022/04/19 11:35:35;;;;;;;15.63;7.57;;;;;;;12.64;50.55;99163.09;5089326;28;21546;-60
2022/04/19 11:38:09;;;;;;;6.53;5.93;;;;;;;13.19;49.56;99185.56;5088050;28;20210;-60
2022/04/19 11:49:05;;;;;;;7.37;5.77;;;;;;;13.90;46.30;99188.09;5091362;28;20189;-60
2022/04/19 11:51:35;;;;;;;6.67;6.07;;;;;;;13.77;48.28;99186.41;5094894;28;20220;-63
2022/04/19 11:54:03;;;;;;;8.60;7.60;;;;;;;13.69;48.96;99192.44;5096009;28;20214;-60
2022/04/19 11:56:31;;;;;;;6.40;5.87;;;;;;;13.39;49.86;99188.16;5090617;28;20279;-60
2022/04/19 11:59:00;;;;;;;6.53;5.87;;;;;;;13.38;49.14;99186.44;5091112;28;20260;-60
2022/04/19 12:01:28;;;;;;;7.07;6.33;;;;;;;13.25;48.37;99195.91;5091111;28;20580;-60
2022/04/19 12:03:55;;;;;;;7.83;7.10;;;;;;;13.13;49.09;99188.13;5091037;28;20198;-59
2022/04/19 12:06:23;;;;;;;7.50;6.70;;;;;;;12.97;49.08;99170.88;5090743;28;20192;-60
2022/04/19 12:08:51;;;;;;;7.10;6.40;;;;;;;13.13;49.25;99188.13;5090803;28;20195;-61
2022/04/19 12:11:21;;;;;;;7.07;6.47;;;;;;;13.17;49.48;99191.59;5090675;28;20218;-60
2022/04/19 12:13:49;;;;;;;7.97;7.17;;;;;;;13.02;49.36;99192.38;5091183;28;20277;-59
2022/04/19 12:16:30;;;;;;;7.50;6.20;;;;;;;12.82;49.19;99199.25;5090873;28;20229;-60
2022/04/19 12:18:59;;;;;;;7.38;5.78;;;;;;;12.48;49.14;99228.31;5090731;28;20548;-60
2022/04/19 12:21:38;;;;;;;6.90;4.30;;;;;;;12.01;53.03;99234.09;5090889;28;20191;-60
2022/04/19 12:24:06;;;;;;;4.38;3.30;;;;;;;11.81;55.30;99217.66;5089842;28;20451;-60
2022/04/19 12:26:35;;;;;;;2.97;2.67;;;;;;;10.84;59.64;99231.34;5090432;28;20191;-60